createdAt,value
2023-05-02T00:01:01.606Z,100.00
2023-05-02T00:03:34.542Z,100.00
2023-05-02T00:06:07.070Z,100.00
2023-05-02T00:08:39.690Z,100.00
2023-05-02T00:11:13.664Z,100.00
2023-05-02T00:13:46.082Z,99.30
2023-05-02T00:16:18.530Z,100.00
2023-05-02T00:18:51.022Z,99.62
2023-05-02T00:21:23.272Z,100.00
2023-05-02T00:23:56.331Z,99.61
2023-05-02T00:26:29.694Z,99.98
2023-05-02T00:29:02.091Z,99.85
2023-05-02T00:31:35.232Z,99.90
2023-05-02T00:34:07.711Z,100.00
2023-05-02T00:36:40.027Z,100.00
2023-05-02T00:39:12.648Z,100.00
2023-05-02T00:41:45.649Z,99.59
2023-05-02T00:44:18.018Z,99.09
2023-05-02T00:46:50.868Z,99.93
2023-05-02T00:49:23.242Z,99.86
2023-05-02T00:51:55.509Z,99.88
2023-05-02T00:54:28.637Z,98.82
2023-05-02T00:57:02.254Z,99.67
2023-05-02T00:59:36.326Z,100.00
2023-05-02T01:02:25.720Z,100.00
2023-05-02T01:05:05.400Z,100.00
2023-05-02T01:08:02.214Z,100.00
2023-05-02T01:10:47.691Z,100.00
2023-05-02T01:13:26.048Z,100.00
2023-05-02T01:16:00.866Z,100.00
2023-05-02T01:18:37.302Z,100.00
2023-05-02T01:21:11.355Z,100.00
2023-05-02T01:23:52.445Z,100.00
2023-05-02T01:26:32.668Z,100.00
2023-05-02T01:29:07.803Z,100.00
2023-05-02T01:31:43.745Z,100.00
2023-05-02T01:34:19.824Z,100.00
2023-05-02T01:36:54.307Z,100.00
2023-05-02T01:39:28.311Z,100.00
2023-05-02T01:42:03.252Z,100.00
2023-05-02T01:44:37.134Z,100.00
2023-05-02T01:47:10.279Z,100.00
2023-05-02T01:49:44.143Z,100.00
2023-05-02T01:52:21.039Z,100.00
2023-05-02T01:54:55.085Z,100.00
2023-05-02T01:57:27.483Z,100.00
2023-05-02T02:00:03.339Z,100.00
2023-05-02T02:02:47.552Z,100.00
2023-05-02T02:05:22.209Z,100.00
2023-05-02T02:07:54.697Z,100.00
2023-05-02T02:10:31.589Z,100.00
2023-05-02T02:13:12.387Z,100.00
2023-05-02T02:15:48.932Z,100.00
2023-05-02T02:18:25.768Z,100.00
2023-05-02T02:21:00.237Z,100.00
2023-05-02T02:23:34.460Z,100.00
2023-05-02T02:26:09.157Z,100.00
2023-05-02T02:28:42.198Z,100.00
2023-05-02T02:31:15.377Z,100.00
2023-05-02T02:33:48.089Z,100.00
2023-05-02T02:36:27.540Z,100.00
2023-05-02T02:39:13.523Z,100.00
2023-05-02T02:41:55.690Z,100.00
2023-05-02T02:44:40.027Z,100.00
2023-05-02T02:47:23.330Z,100.00
2023-05-02T02:50:11.278Z,100.00
2023-05-02T02:52:54.779Z,100.00
2023-05-02T02:55:38.392Z,100.00
2023-05-02T02:58:19.935Z,100.00
2023-05-02T03:00:53.136Z,100.00
2023-05-02T03:03:28.431Z,100.00
2023-05-02T03:06:01.031Z,100.00
2023-05-02T03:08:39.766Z,100.00
2023-05-02T03:11:12.204Z,100.00
2023-05-02T03:13:44.752Z,100.00
2023-05-02T03:16:34.374Z,100.00
2023-05-02T03:19:08.898Z,100.00
2023-05-02T03:21:42.090Z,100.00
2023-05-02T03:24:22.653Z,100.00
2023-05-02T03:26:55.776Z,100.00
2023-05-02T03:29:31.350Z,100.00
2023-05-02T03:32:03.789Z,100.00
2023-05-02T03:34:37.125Z,100.00
2023-05-02T03:37:09.612Z,100.00
2023-05-02T03:39:41.987Z,100.00
2023-05-02T03:42:14.296Z,100.00
2023-05-02T03:44:46.865Z,100.00
2023-05-02T03:47:19.976Z,100.00
2023-05-02T03:49:53.166Z,100.00
2023-05-02T03:52:26.067Z,100.00
2023-05-02T03:55:00.908Z,100.00
2023-05-02T03:57:33.975Z,100.00
2023-05-02T04:00:07.584Z,100.00
2023-05-02T04:02:51.390Z,100.00
2023-05-02T04:05:28.142Z,100.00
2023-05-02T04:08:01.507Z,100.00
2023-05-02T04:10:34.684Z,100.00
2023-05-02T04:13:09.859Z,100.00
2023-05-02T04:15:45.321Z,100.00
2023-05-02T04:18:18.415Z,100.00
2023-05-02T04:20:51.454Z,100.00
2023-05-02T04:23:25.595Z,100.00
2023-05-02T04:26:02.886Z,100.00
2023-05-02T04:28:44.388Z,100.00
2023-05-02T04:31:20.059Z,100.00
2023-05-02T04:33:53.242Z,100.00
2023-05-02T04:36:30.239Z,100.00
2023-05-02T04:39:03.316Z,100.00
2023-05-02T04:41:37.527Z,100.00
2023-05-02T04:44:12.215Z,100.00
2023-05-02T04:46:45.336Z,100.00
2023-05-02T04:49:18.024Z,100.00
2023-05-02T04:51:52.027Z,100.00
2023-05-02T04:54:24.520Z,100.00
2023-05-02T04:56:58.736Z,100.00
2023-05-02T04:59:31.533Z,100.00
2023-05-02T05:02:07.404Z,100.00
2023-05-02T05:04:39.784Z,100.00
2023-05-02T05:07:13.149Z,100.00
2023-05-02T05:09:45.504Z,100.00
2023-05-02T05:12:18.092Z,100.00
2023-05-02T05:14:50.475Z,100.00
2023-05-02T05:17:24.058Z,100.00
2023-05-02T05:19:56.504Z,100.00
2023-05-02T05:22:29.555Z,100.00
2023-05-02T05:25:02.304Z,100.00
2023-05-02T05:27:37.643Z,100.00
2023-05-02T05:30:11.594Z,100.00
2023-05-02T05:32:44.585Z,100.00
2023-05-02T05:35:17.172Z,100.00
2023-05-02T05:37:50.727Z,100.00
2023-05-02T05:40:23.785Z,100.00
2023-05-02T05:43:01.492Z,100.00
2023-05-02T05:45:38.103Z,100.00
2023-05-02T05:48:11.478Z,100.00
2023-05-02T05:50:48.907Z,100.00
2023-05-02T05:53:22.083Z,100.00
2023-05-02T05:55:55.297Z,98.13
2023-05-02T05:58:28.500Z,95.42
2023-05-02T06:01:01.958Z,94.86
2023-05-02T06:03:34.794Z,93.76
2023-05-02T06:06:07.331Z,92.62
2023-05-02T06:08:40.364Z,91.60
2023-05-02T06:11:12.890Z,90.99
2023-05-02T06:13:45.958Z,88.15
2023-05-02T06:16:18.538Z,88.74
2023-05-02T06:18:52.356Z,87.11
2023-05-02T06:21:24.635Z,86.18
2023-05-02T06:23:57.592Z,85.36
2023-05-02T06:26:30.091Z,86.46
2023-05-02T06:29:02.972Z,83.76
2023-05-02T06:31:35.268Z,81.96
2023-05-02T06:34:07.626Z,81.06
2023-05-02T06:36:39.913Z,81.94
2023-05-02T06:39:12.894Z,81.81
2023-05-02T06:41:45.341Z,81.12
2023-05-02T06:44:21.900Z,78.80
2023-05-02T06:47:26.904Z,76.39
2023-05-02T06:50:02.773Z,78.17
2023-05-02T06:52:35.254Z,75.96
2023-05-02T06:55:08.893Z,74.53
2023-05-02T06:57:41.762Z,74.96
2023-05-02T07:00:16.283Z,71.96
2023-05-02T07:02:49.216Z,72.19
2023-05-02T07:05:21.587Z,71.01
2023-05-02T07:07:53.880Z,70.06
2023-05-02T07:10:27.073Z,70.99
2023-05-02T07:12:59.365Z,69.01
2023-05-02T07:15:31.746Z,66.72
2023-05-02T07:18:04.137Z,67.80
2023-05-02T07:20:38.116Z,66.21
2023-05-02T07:23:10.424Z,65.54
2023-05-02T07:25:43.494Z,64.39
2023-05-02T07:28:15.823Z,64.01
2023-05-02T07:30:48.149Z,62.30
2023-05-02T07:33:20.588Z,60.52
2023-05-02T07:35:52.948Z,62.11
2023-05-02T07:38:27.392Z,61.54
2023-05-02T07:41:00.884Z,60.75
2023-05-02T07:43:33.179Z,58.39
2023-05-02T07:46:06.032Z,56.19
2023-05-02T07:48:38.576Z,58.35
2023-05-02T07:51:11.455Z,58.03
2023-05-02T07:53:43.779Z,53.29
2023-05-02T07:56:16.723Z,55.33
2023-05-02T07:58:50.855Z,52.34
2023-05-02T08:01:23.163Z,53.11
2023-05-02T08:03:55.632Z,52.17
2023-05-02T08:06:28.307Z,53.92
2023-05-02T08:09:01.034Z,50.99
2023-05-02T08:11:33.994Z,52.31
2023-05-02T08:14:06.304Z,54.97
2023-05-02T08:16:38.930Z,50.69
2023-05-02T08:19:11.316Z,50.31
2023-05-02T08:21:43.666Z,51.32
2023-05-02T08:24:16.007Z,51.71
2023-05-02T08:26:49.237Z,49.19
2023-05-02T08:29:21.571Z,48.38
2023-05-02T08:31:53.958Z,48.50
2023-05-02T08:34:26.288Z,46.23
2023-05-02T08:36:58.692Z,46.27
2023-05-02T08:39:33.010Z,46.51
2023-05-02T08:42:07.373Z,45.57
2023-05-02T08:44:39.864Z,45.67
2023-05-02T08:47:14.226Z,45.16
2023-05-02T08:49:48.474Z,43.60
2023-05-02T08:52:21.862Z,44.28
2023-05-02T08:54:55.264Z,46.35
2023-05-02T08:57:30.113Z,44.13
2023-05-02T09:00:03.440Z,45.54
2023-05-02T09:02:58.494Z,45.25
2023-05-02T09:05:36.282Z,48.67
2023-05-02T09:08:09.187Z,47.29
2023-05-02T09:10:42.403Z,47.29
2023-05-02T09:13:35.580Z,48.65
2023-05-02T09:16:09.959Z,48.90
2023-05-02T09:18:44.119Z,48.96
2023-05-02T09:21:20.643Z,47.12
2023-05-02T09:23:55.168Z,46.82
2023-05-02T09:26:31.834Z,47.15
2023-05-02T09:29:05.103Z,46.56
2023-05-02T09:34:14.277Z,45.96
2023-05-02T09:36:50.166Z,45.64
2023-05-02T09:39:25.937Z,46.57
2023-05-02T09:41:59.466Z,45.17
2023-05-02T09:44:38.397Z,44.63
2023-05-02T09:47:10.893Z,45.59
2023-05-02T09:49:44.417Z,44.97
2023-05-02T09:52:19.119Z,44.38
2023-05-02T09:54:51.906Z,44.75
2023-05-02T09:57:39.534Z,45.54
2023-05-02T10:00:15.667Z,44.42
2023-05-02T10:02:50.898Z,45.71
2023-05-02T10:05:23.624Z,44.66
2023-05-02T10:07:56.307Z,43.55
2023-05-02T10:10:28.997Z,45.02
2023-05-02T10:13:02.833Z,44.49
2023-05-02T10:15:41.289Z,43.22
2023-05-02T10:18:17.531Z,45.08
2023-05-02T10:20:56.802Z,41.92
2023-05-02T10:23:29.652Z,42.11
2023-05-02T10:26:02.440Z,41.73
2023-05-02T10:28:35.064Z,41.98
2023-05-02T10:31:10.175Z,43.20
2023-05-02T10:33:42.749Z,41.04
2023-05-02T10:36:15.309Z,39.74
2023-05-02T10:38:48.450Z,39.52
2023-05-02T10:41:24.084Z,40.13
2023-05-02T10:43:56.705Z,40.74
2023-05-02T10:46:34.076Z,40.07
2023-05-02T10:49:07.814Z,40.48
2023-05-02T10:51:42.152Z,40.72
2023-05-02T10:54:22.090Z,39.96
2023-05-02T10:57:06.044Z,40.17
2023-05-02T10:59:39.584Z,38.88
2023-05-02T11:02:50.774Z,40.14
2023-05-02T11:05:24.350Z,38.66
2023-05-02T11:08:32.190Z,39.71
2023-05-02T11:11:39.576Z,37.10
2023-05-02T11:14:33.082Z,37.53
2023-05-02T11:17:06.843Z,37.44
2023-05-02T11:20:21.667Z,37.50
2023-05-02T11:23:21.443Z,38.11
2023-05-02T11:25:55.642Z,36.83
2023-05-02T11:28:43.859Z,37.49
2023-05-02T11:31:49.694Z,36.88
2023-05-02T11:34:22.157Z,35.18
2023-05-02T11:36:54.633Z,35.65
2023-05-02T11:39:27.665Z,34.79
2023-05-02T11:42:00.178Z,36.25
2023-05-02T11:44:32.788Z,35.58
2023-05-02T11:47:05.173Z,35.28
2023-05-02T11:49:37.657Z,36.20
2023-05-02T11:52:10.211Z,35.19
2023-05-02T11:54:43.412Z,36.40
2023-05-02T11:57:15.897Z,36.89
2023-05-02T11:59:52.287Z,36.23
2023-05-02T12:02:36.150Z,36.01
2023-05-02T12:05:10.163Z,36.32
2023-05-02T12:07:44.527Z,36.25
2023-05-02T12:10:17.611Z,34.99
2023-05-02T12:12:50.503Z,36.16
2023-05-02T12:15:23.244Z,35.34
2023-05-02T12:17:55.742Z,37.60
2023-05-02T12:20:28.210Z,35.61
2023-05-02T12:23:00.924Z,35.22
2023-05-02T12:25:38.810Z,35.22
2023-05-02T12:28:11.089Z,36.71
2023-05-02T12:30:47.225Z,35.93
2023-05-02T12:33:19.618Z,35.26
2023-05-02T12:35:53.303Z,36.11
2023-05-02T12:38:25.767Z,36.37
2023-05-02T12:40:58.904Z,35.73
2023-05-02T12:43:45.755Z,34.61
2023-05-02T12:46:18.267Z,35.90
2023-05-02T12:49:01.582Z,36.89
2023-05-02T12:51:34.061Z,36.71
2023-05-02T12:54:06.528Z,38.53
2023-05-02T12:56:40.689Z,37.46
2023-05-02T12:59:26.732Z,37.17
2023-05-02T13:01:59.674Z,38.23
2023-05-02T13:04:35.685Z,37.41
2023-05-02T13:07:08.134Z,37.61
2023-05-02T13:09:40.651Z,35.86
2023-05-02T13:12:13.760Z,37.02
2023-05-02T13:14:46.136Z,36.56
2023-05-02T13:17:18.731Z,36.68
2023-05-02T13:20:00.805Z,38.18
2023-05-02T13:22:34.874Z,35.08
2023-05-02T13:25:08.641Z,35.76
2023-05-02T13:27:41.622Z,35.68
2023-05-02T13:30:14.021Z,35.58
2023-05-02T13:32:46.512Z,35.75
2023-05-02T13:35:18.908Z,32.37
2023-05-02T13:37:51.635Z,34.14
2023-05-02T13:40:24.010Z,32.70
2023-05-02T13:42:57.047Z,33.88
2023-05-02T13:45:29.396Z,33.21
2023-05-02T13:48:01.918Z,33.25
2023-05-02T13:50:36.633Z,33.84
2023-05-02T13:53:09.013Z,31.88
2023-05-02T13:55:41.358Z,32.46
2023-05-02T13:58:14.457Z,31.20
2023-05-02T14:00:46.807Z,31.76
2023-05-02T14:03:19.523Z,31.86
2023-05-02T14:05:52.008Z,31.67
2023-05-02T14:08:24.530Z,31.43
2023-05-02T14:10:56.946Z,32.80
2023-05-02T14:13:30.063Z,33.16
2023-05-02T14:16:02.587Z,31.01
2023-05-02T14:18:35.029Z,32.15
2023-05-02T14:21:07.874Z,31.85
2023-05-02T14:23:40.350Z,30.96
2023-05-02T14:26:13.426Z,32.17
2023-05-02T14:28:46.578Z,31.76
2023-05-02T14:31:18.896Z,32.12
2023-05-02T14:33:51.436Z,30.73
2023-05-02T14:36:23.805Z,30.13
2023-05-02T14:38:56.141Z,30.72
2023-05-02T14:41:28.465Z,31.12
2023-05-02T14:44:01.506Z,30.73
2023-05-02T14:46:33.876Z,31.29
2023-05-02T14:49:06.206Z,31.06
2023-05-02T14:51:38.604Z,30.89
2023-05-02T14:54:10.864Z,30.83
2023-05-02T14:56:43.528Z,31.48
2023-05-02T14:59:16.556Z,31.26
2023-05-02T15:01:50.767Z,30.64
2023-05-02T15:04:25.601Z,30.65
2023-05-02T15:06:59.499Z,30.76
2023-05-02T15:09:31.882Z,31.17
2023-05-02T15:12:04.597Z,30.34
2023-05-02T15:14:37.539Z,30.82
2023-05-02T15:17:10.104Z,31.23
2023-05-02T15:19:42.497Z,31.07
2023-05-02T15:22:15.293Z,31.42
2023-05-02T15:24:47.612Z,31.97
2023-05-02T15:27:19.884Z,31.82
2023-05-02T15:29:52.941Z,32.72
2023-05-02T15:32:25.311Z,33.00
2023-05-02T15:34:57.788Z,32.56
2023-05-02T15:37:30.086Z,33.15
2023-05-02T15:40:03.491Z,33.51
2023-05-02T15:42:36.876Z,33.09
2023-05-02T15:45:13.101Z,33.37
2023-05-02T15:47:46.087Z,33.86
2023-05-02T15:50:19.053Z,33.97
2023-05-02T15:52:51.402Z,34.12
2023-05-02T15:55:23.715Z,34.43
2023-05-02T15:57:56.314Z,34.45
2023-05-02T16:00:29.642Z,34.66
2023-05-02T16:03:03.925Z,34.66
2023-05-02T16:05:36.491Z,34.62
2023-05-02T16:08:08.959Z,34.84
2023-05-02T16:10:42.778Z,34.49
2023-05-02T16:13:15.116Z,34.97
2023-05-02T16:15:48.189Z,34.91
2023-05-02T16:18:22.412Z,34.77
2023-05-02T16:20:55.248Z,35.26
2023-05-02T16:23:27.629Z,35.74
2023-05-02T16:26:00.904Z,35.14
2023-05-02T16:28:33.271Z,35.33
2023-05-02T16:31:06.812Z,36.25
2023-05-02T16:33:39.134Z,36.71
2023-05-02T16:36:11.447Z,36.88
2023-05-02T16:38:43.775Z,36.32
2023-05-02T16:41:16.100Z,36.49
2023-05-02T16:43:49.494Z,36.47
2023-05-02T16:46:22.518Z,36.97
2023-05-02T16:48:54.807Z,37.20
2023-05-02T16:51:27.453Z,36.50
2023-05-02T16:53:59.751Z,36.52
2023-05-02T16:56:32.067Z,36.88
2023-05-02T16:59:04.537Z,37.03
2023-05-02T17:01:37.729Z,37.04
2023-05-02T17:04:10.057Z,37.45
2023-05-02T17:06:42.495Z,37.62
2023-05-02T17:09:15.041Z,37.81
2023-05-02T17:11:47.379Z,37.74
2023-05-02T17:14:20.050Z,37.82
2023-05-02T17:16:53.069Z,38.08
2023-05-02T17:19:26.117Z,38.09
2023-05-02T17:21:59.386Z,38.28
2023-05-02T17:24:32.067Z,38.69
2023-05-02T17:27:04.437Z,38.85
2023-05-02T17:29:36.728Z,38.72
2023-05-02T17:32:10.898Z,38.80
2023-05-02T17:34:43.855Z,39.43
2023-05-02T17:37:16.224Z,39.16
2023-05-02T17:39:48.630Z,38.92
2023-05-02T17:42:20.964Z,39.08
2023-05-02T17:44:53.284Z,39.60
2023-05-02T17:47:26.298Z,39.81
2023-05-02T17:49:58.614Z,39.29
2023-05-02T17:52:31.458Z,39.80
2023-05-02T17:55:04.457Z,40.07
2023-05-02T17:57:36.781Z,39.82
2023-05-02T18:00:10.313Z,39.54
2023-05-02T18:02:43.661Z,39.93
2023-05-02T18:05:16.824Z,39.67
2023-05-02T18:07:49.151Z,40.31
2023-05-02T18:10:21.428Z,39.78
2023-05-02T18:12:53.829Z,40.42
2023-05-02T18:15:26.846Z,40.33
2023-05-02T18:17:59.847Z,40.85
2023-05-02T18:20:32.238Z,40.79
2023-05-02T18:23:05.383Z,41.42
2023-05-02T18:25:37.762Z,41.52
2023-05-02T18:28:10.936Z,41.48
2023-05-02T18:30:43.247Z,42.23
2023-05-02T18:33:16.430Z,42.62
2023-05-02T18:35:49.023Z,42.63
2023-05-02T18:38:21.320Z,42.66
2023-05-02T18:40:53.604Z,42.70
2023-05-02T18:43:25.946Z,42.65
2023-05-02T18:45:58.332Z,43.12
2023-05-02T18:48:31.686Z,42.59
2023-05-02T18:51:04.321Z,42.95
2023-05-02T18:53:36.679Z,42.90
2023-05-02T18:56:13.385Z,43.14
2023-05-02T18:58:45.880Z,43.13
2023-05-02T19:01:21.222Z,43.12
2023-05-02T19:03:54.607Z,43.34
2023-05-02T19:06:27.638Z,44.05
2023-05-02T19:09:00.149Z,43.92
2023-05-02T19:11:32.751Z,43.42
2023-05-02T19:14:05.082Z,43.50
2023-05-02T19:16:39.382Z,43.71
2023-05-02T19:19:12.493Z,43.99
2023-05-02T19:21:45.123Z,43.49
2023-05-02T19:24:18.907Z,43.53
2023-05-02T19:26:52.386Z,43.28
2023-05-02T19:29:24.646Z,43.56
2023-05-02T19:31:56.986Z,43.93
2023-05-02T19:34:31.118Z,43.44
2023-05-02T19:37:03.791Z,44.04
2023-05-02T19:39:36.139Z,43.50
2023-05-02T19:42:08.637Z,43.62
2023-05-02T19:44:41.169Z,43.86
2023-05-02T19:47:13.500Z,44.05
2023-05-02T19:49:46.436Z,43.96
2023-05-02T19:52:18.711Z,44.22
2023-05-02T19:54:51.164Z,43.74
2023-05-02T19:57:23.482Z,44.36
2023-05-02T19:59:55.801Z,44.50
2023-05-02T20:02:28.166Z,44.86
2023-05-02T20:05:01.814Z,44.84
2023-05-02T20:07:34.350Z,45.08
2023-05-02T20:10:08.289Z,45.07
2023-05-02T20:12:44.006Z,44.86
2023-05-02T20:15:16.850Z,44.58
2023-05-02T20:17:49.254Z,44.54
2023-05-02T20:20:22.276Z,44.50
2023-05-02T20:22:54.631Z,44.27
2023-05-02T20:25:27.937Z,44.02
2023-05-02T20:28:00.406Z,44.39
2023-05-02T20:30:32.962Z,45.76
2023-05-02T20:33:14.816Z,45.57
2023-05-02T20:35:54.172Z,45.70
2023-05-02T20:38:26.497Z,45.82
2023-05-02T20:40:58.780Z,46.54
2023-05-02T20:43:34.685Z,46.00
2023-05-02T20:46:10.935Z,47.30
2023-05-02T20:48:43.301Z,46.96
2023-05-02T20:51:16.315Z,47.69
2023-05-02T20:53:48.789Z,47.42
2023-05-02T20:56:21.098Z,47.51
2023-05-02T20:58:53.377Z,47.96
2023-05-02T21:01:25.859Z,48.68
2023-05-02T21:03:58.151Z,49.36
2023-05-02T21:06:31.905Z,50.44
2023-05-02T21:09:04.272Z,50.27
2023-05-02T21:11:36.637Z,50.42
2023-05-02T21:14:09.421Z,50.04
2023-05-02T21:16:41.776Z,49.15
2023-05-02T21:19:14.081Z,48.56
2023-05-02T21:21:47.525Z,48.29
2023-05-02T21:24:19.802Z,49.97
2023-05-02T21:26:52.254Z,50.51
2023-05-02T21:29:24.619Z,50.41
2023-05-02T21:31:56.914Z,51.09
2023-05-02T21:34:29.269Z,51.00
2023-05-02T21:37:02.447Z,51.67
2023-05-02T21:39:34.740Z,51.85
2023-05-02T21:42:07.048Z,51.44
2023-05-02T21:44:39.350Z,52.17
2023-05-02T21:47:11.701Z,52.72
2023-05-02T21:49:44.190Z,53.40
2023-05-02T21:52:17.210Z,52.90
2023-05-02T21:54:51.720Z,53.83
2023-05-02T21:57:24.055Z,54.10
2023-05-02T21:59:56.415Z,55.53
2023-05-02T22:02:28.898Z,55.97
2023-05-02T22:05:01.916Z,55.63
2023-05-02T22:07:35.515Z,55.59
2023-05-02T22:10:09.222Z,54.93
2023-05-02T22:12:41.830Z,55.33
2023-05-02T22:15:14.300Z,55.91
2023-05-02T22:17:46.799Z,56.63
2023-05-02T22:20:19.188Z,56.33
2023-05-02T22:22:52.148Z,57.13
2023-05-02T22:25:24.588Z,55.08
2023-05-02T22:28:00.344Z,54.61
2023-05-02T22:30:32.731Z,55.22
2023-05-02T22:33:05.790Z,56.08
2023-05-02T22:35:38.224Z,56.41
2023-05-02T22:38:14.676Z,55.88
2023-05-02T22:40:46.973Z,56.22
2023-05-02T22:43:19.286Z,55.62
2023-05-02T22:45:51.859Z,55.24
2023-05-02T22:48:24.588Z,56.89
2023-05-02T22:50:57.119Z,56.80
2023-05-02T22:53:30.715Z,55.44
2023-05-02T22:56:03.750Z,56.01
2023-05-02T22:58:36.040Z,57.23
2023-05-02T23:01:08.402Z,57.13
2023-05-02T23:03:40.890Z,56.39
2023-05-02T23:06:13.732Z,56.30
2023-05-02T23:08:46.747Z,56.16
2023-05-02T23:11:19.078Z,56.74
2023-05-02T23:13:51.372Z,58.04
2023-05-02T23:16:24.554Z,56.37
2023-05-02T23:18:56.846Z,55.94
2023-05-02T23:21:29.156Z,55.87
2023-05-02T23:24:02.206Z,56.70
2023-05-02T23:26:34.622Z,56.10
2023-05-02T23:29:06.909Z,55.99
2023-05-02T23:31:39.574Z,56.11
2023-05-02T23:34:12.061Z,56.02
2023-05-02T23:36:44.601Z,55.57
2023-05-02T23:39:17.588Z,54.36
2023-05-02T23:41:49.978Z,55.05
2023-05-02T23:44:22.351Z,55.08
2023-05-02T23:46:54.740Z,54.92
2023-05-02T23:49:27.131Z,55.02
2023-05-02T23:52:01.016Z,55.39
2023-05-02T23:54:34.918Z,56.27
2023-05-02T23:57:08.701Z,57.31
2023-05-02T23:59:40.944Z,56.18
